createdAt,value
2023-09-19T00:03:01.963Z,14.2
2023-09-19T00:11:13.232Z,14.2
2023-09-19T00:13:16.597Z,14.1
2023-09-19T00:15:17.358Z,14.1
2023-09-19T00:17:19.519Z,14.1
2023-09-19T00:19:21.503Z,14.2
2023-09-19T00:21:23.535Z,14.2
2023-09-19T00:23:28.851Z,14.1
2023-09-19T00:25:31.029Z,14.1
2023-09-19T00:27:33.043Z,14.1
2023-09-19T00:29:35.133Z,14.1
2023-09-19T00:31:37.321Z,14.1
2023-09-19T00:33:39.539Z,14.2
2023-09-19T00:35:41.406Z,14.1
2023-09-19T00:37:46.646Z,14.1
2023-09-19T00:39:48.666Z,14.1
2023-09-19T00:41:50.728Z,14.1
2023-09-19T00:47:57.057Z,14
2023-09-19T00:49:59.000Z,14
2023-09-19T00:54:06.245Z,14.1
2023-09-19T00:57:10.930Z,14.1
2023-09-19T00:59:13.003Z,14
2023-09-19T01:01:15.046Z,14
2023-09-19T01:03:17.209Z,14
2023-09-19T01:05:22.323Z,13.9
2023-09-19T01:09:26.434Z,13.9
2023-09-19T01:13:30.720Z,14
2023-09-19T01:21:42.079Z,14
2023-09-19T01:23:44.289Z,14.1
2023-09-19T01:25:46.507Z,14.1
2023-09-19T01:27:48.484Z,14.1
2023-09-19T01:29:50.595Z,14.1
2023-09-19T01:31:52.794Z,14.1
2023-09-19T01:33:57.973Z,14.1
2023-09-19T01:38:02.038Z,14.1
2023-09-19T01:40:04.198Z,14.2
2023-09-19T01:42:06.294Z,14.2
2023-09-19T01:48:15.562Z,14.2
2023-09-19T01:50:17.642Z,14.2
2023-09-19T01:53:22.387Z,14.3
2023-09-19T01:55:24.490Z,14.2
2023-09-19T01:57:26.514Z,14.3
2023-09-19T02:01:33.854Z,14.3
2023-09-19T02:03:35.923Z,14.2
2023-09-19T02:13:46.275Z,14.3
2023-09-19T02:15:53.229Z,14.3
2023-09-19T02:17:55.259Z,14.3
2023-09-19T02:19:57.313Z,14.3
2023-09-19T02:21:59.396Z,14.3
2023-09-19T02:24:01.542Z,14.3
2023-09-19T02:26:03.545Z,14.2
2023-09-19T02:28:05.675Z,14.2
2023-09-19T02:30:10.898Z,14.2
2023-09-19T02:32:13.023Z,14.3
2023-09-19T02:34:15.042Z,14.2
2023-09-19T02:46:30.821Z,14.2
2023-09-19T02:51:01.719Z,14.2
2023-09-19T02:53:03.757Z,14.2
2023-09-19T02:55:05.828Z,14.2
2023-09-19T03:09:23.664Z,13.9
2023-09-19T03:11:29.264Z,13.9
2023-09-19T03:15:33.224Z,13.9
2023-09-19T03:17:35.352Z,13.9
2023-09-19T03:19:37.359Z,13.8
2023-09-19T03:21:39.379Z,13.9
2023-09-19T03:29:50.834Z,13.7
2023-09-19T03:31:52.940Z,13.7
2023-09-19T03:33:54.957Z,13.6
2023-09-19T03:37:59.111Z,13.6
2023-09-19T03:40:04.373Z,13.6
2023-09-19T03:42:06.439Z,13.6
2023-09-19T03:44:08.601Z,13.6
2023-09-19T03:45:11.325Z,13.5
2023-09-19T03:49:15.563Z,13.5
2023-09-19T04:01:31.328Z,13.4
2023-09-19T04:03:33.547Z,13.3
2023-09-19T04:05:35.542Z,13.3
2023-09-19T04:07:41.028Z,13.4
2023-09-19T04:09:43.143Z,13.3
2023-09-19T04:11:45.278Z,13.3
2023-09-19T04:13:47.452Z,13.3
2023-09-19T04:15:49.520Z,13.2
2023-09-19T04:36:34.715Z,13.1
2023-09-19T04:38:18.694Z,13
2023-09-19T04:40:20.805Z,13
2023-09-19T04:41:23.370Z,13
2023-09-19T04:43:25.445Z,13
2023-09-19T04:45:27.471Z,12.9
2023-09-19T04:47:29.697Z,12.9
2023-09-19T04:51:37.091Z,12.9
2023-09-19T04:59:45.486Z,13
2023-09-19T05:05:54.896Z,13
2023-09-19T05:07:57.295Z,13
2023-09-19T05:09:59.076Z,12.9
2023-09-19T05:12:01.306Z,12.9
2023-09-19T05:16:05.659Z,12.9
2023-09-19T05:18:10.773Z,12.9
2023-09-19T05:20:12.835Z,12.9
2023-09-19T05:22:14.968Z,12.8
2023-09-19T05:24:17.119Z,12.9
2023-09-19T05:26:19.298Z,12.9
2023-09-19T05:28:21.453Z,12.9
2023-09-19T05:30:23.481Z,12.9
2023-09-19T05:32:28.846Z,13
2023-09-19T05:34:30.947Z,13
2023-09-19T05:36:33.101Z,13
2023-09-19T05:37:35.829Z,13.1
2023-09-19T05:43:42.742Z,13.2
2023-09-19T05:51:53.898Z,13.2
2023-09-19T05:53:56.114Z,13.3
2023-09-19T05:55:58.295Z,13.3
2023-09-19T05:58:00.375Z,13.4
2023-09-19T06:00:05.767Z,13.3
2023-09-19T06:02:08.036Z,13.4
2023-09-19T06:04:10.104Z,13.4
2023-09-19T06:10:16.483Z,13.5
2023-09-19T06:12:18.532Z,13.5
2023-09-19T06:14:23.895Z,13.6
2023-09-19T06:20:30.330Z,13.5
2023-09-19T06:26:36.556Z,13.6
2023-09-19T06:28:41.819Z,13.7
2023-09-19T06:30:43.937Z,13.8
2023-09-19T06:32:46.152Z,13.8
2023-09-19T06:35:14.702Z,13.9
2023-09-19T06:39:18.985Z,14
2023-09-19T06:41:24.284Z,14.1
2023-09-19T06:43:26.345Z,14.1
2023-09-19T06:45:28.791Z,14.1
2023-09-19T06:49:32.695Z,14.5
2023-09-19T06:55:42.138Z,14.4
2023-09-19T06:57:44.134Z,14.5
2023-09-19T07:05:52.453Z,14.6
2023-09-19T07:07:54.551Z,14.6
2023-09-19T07:12:04.007Z,14.7
2023-09-19T07:14:03.901Z,14.7
2023-09-19T07:16:06.057Z,14.7
2023-09-19T07:18:08.059Z,14.9
2023-09-19T07:20:10.054Z,14.9
2023-09-19T07:22:12.117Z,14.9
2023-09-19T07:24:17.349Z,14.8
2023-09-19T07:29:24.044Z,14.9
2023-09-19T07:31:26.191Z,15
2023-09-19T07:33:28.182Z,15.1
2023-09-19T07:35:30.246Z,15.2
2023-09-19T07:37:35.482Z,15.2
2023-09-19T07:39:37.545Z,15.2
2023-09-19T07:41:39.632Z,15.2
2023-09-19T07:51:53.097Z,15.5
2023-09-19T07:53:55.175Z,15.6
2023-09-19T07:55:57.239Z,15.7
2023-09-19T07:57:59.317Z,15.6
2023-09-19T08:00:01.400Z,15.7
2023-09-19T08:04:05.656Z,15.7
2023-09-19T08:06:12.281Z,15.7
2023-09-19T08:10:16.383Z,15.8
2023-09-19T08:14:20.504Z,15.9
2023-09-19T08:20:29.854Z,16.5
2023-09-19T08:25:36.672Z,16.6
2023-09-19T08:27:38.697Z,16.6
2023-09-19T08:31:42.938Z,16.7
2023-09-19T08:33:48.096Z,16.6
2023-09-19T08:48:05.730Z,16.9
2023-09-19T08:56:14.000Z,17.1
2023-09-19T08:58:16.098Z,17.2
2023-09-19T09:00:18.148Z,17.1
2023-09-19T09:02:23.349Z,17.2
2023-09-19T09:04:25.461Z,17.2
2023-09-19T09:06:27.516Z,17.2
2023-09-19T09:10:31.711Z,17.2
2023-09-19T09:21:47.782Z,17.4
2023-09-19T09:23:50.182Z,17.6
2023-09-19T09:25:51.996Z,17.5
2023-09-19T09:27:54.013Z,17.5
2023-09-19T09:29:59.241Z,17.6
2023-09-19T09:36:05.462Z,17.8
2023-09-19T09:38:07.552Z,17.6
2023-09-19T09:40:09.618Z,17.6
2023-09-19T09:44:16.945Z,17.7
2023-09-19T09:46:19.146Z,17.8
2023-09-19T09:48:21.032Z,17.9
2023-09-19T09:50:23.115Z,18.1
2023-09-19T09:52:25.336Z,18.2
2023-09-19T10:00:36.607Z,18.5
2023-09-19T10:02:38.853Z,18.3
2023-09-19T10:04:42.691Z,18.2
2023-09-19T10:06:42.829Z,18.4
2023-09-19T10:12:52.212Z,18.3
2023-09-19T10:14:54.314Z,18.4
2023-09-19T10:19:25.068Z,18.7
2023-09-19T10:21:27.090Z,18.6
2023-09-19T10:23:29.176Z,18.9
2023-09-19T10:25:34.397Z,19.2
2023-09-19T10:29:38.532Z,19
2023-09-19T10:31:40.730Z,18.6
2023-09-19T10:33:42.758Z,18.7
2023-09-19T10:35:44.751Z,18.8
2023-09-19T10:37:46.827Z,18.7
2023-09-19T10:39:52.174Z,18.7
2023-09-19T10:41:54.084Z,18.7
2023-09-19T10:43:56.196Z,18.7
2023-09-19T10:45:58.292Z,18.7
2023-09-19T10:48:00.310Z,18.6
2023-09-19T10:50:02.473Z,18.7
2023-09-19T10:52:04.470Z,18.6
2023-09-19T10:54:09.681Z,18.5
2023-09-19T10:56:11.793Z,18.7
2023-09-19T11:00:15.990Z,18.5
2023-09-19T11:04:22.641Z,18.8
2023-09-19T11:08:27.343Z,18.8
2023-09-19T11:10:29.442Z,18.9
2023-09-19T11:13:34.129Z,18.8
2023-09-19T11:15:36.201Z,18.9
2023-09-19T11:17:38.400Z,19.1
2023-09-19T11:21:45.544Z,19.6
2023-09-19T11:23:47.600Z,19.5
2023-09-19T11:25:49.748Z,19.5
2023-09-19T11:27:51.759Z,19.7
2023-09-19T11:29:53.824Z,19.6
2023-09-19T11:31:56.475Z,19.7
2023-09-19T11:33:58.347Z,19.5
2023-09-19T11:36:03.634Z,19.3
2023-09-19T11:38:05.703Z,19.1
2023-09-19T11:48:16.006Z,19.6
2023-09-19T12:09:45.608Z,19.9
2023-09-19T12:11:47.680Z,19.6
2023-09-19T12:13:49.901Z,19.6
2023-09-19T12:15:51.824Z,19.5
2023-09-19T12:19:59.118Z,19.8
2023-09-19T12:22:01.267Z,19.8
2023-09-19T12:24:03.227Z,19.6
2023-09-19T12:28:07.359Z,19.5
2023-09-19T12:36:18.772Z,19.3
2023-09-19T12:38:20.848Z,19.2
2023-09-19T12:42:25.022Z,19.1
2023-09-19T12:50:36.435Z,19.3
2023-09-19T12:52:38.571Z,19.2
2023-09-19T12:54:40.611Z,19.2
2023-09-19T12:56:42.632Z,19.1
2023-09-19T13:00:49.971Z,19.3
2023-09-19T13:04:54.106Z,19.4
2023-09-19T13:05:56.985Z,19.6
2023-09-19T13:16:10.270Z,19.2
2023-09-19T13:18:12.252Z,19.2
2023-09-19T13:24:18.417Z,19.1
2023-09-19T13:26:20.522Z,19.1
2023-09-19T13:28:25.722Z,19.1
2023-09-19T13:30:27.824Z,19.1
2023-09-19T13:32:29.925Z,19.3
2023-09-19T13:34:31.966Z,19.4
2023-09-19T13:36:34.021Z,19.3
2023-09-19T13:38:36.091Z,19.4
2023-09-19T13:42:43.417Z,19.4
2023-09-19T13:44:45.422Z,19.4
2023-09-19T13:48:49.573Z,19.3
2023-09-19T13:52:53.768Z,19.1
2023-09-19T13:54:55.779Z,19.1
2023-09-19T13:57:01.039Z,19.2
2023-09-19T13:59:04.817Z,19.2
2023-09-19T14:01:06.721Z,19.5
2023-09-19T14:13:48.843Z,19.6
2023-09-19T14:15:50.899Z,19.7
2023-09-19T14:17:53.028Z,19.8
2023-09-19T14:19:55.063Z,19.8
2023-09-19T14:21:57.079Z,19.8
2023-09-19T14:24:02.323Z,20
2023-09-19T14:28:06.443Z,19.7
2023-09-19T14:30:08.526Z,19.9
2023-09-19T14:34:12.651Z,19.7
2023-09-19T14:36:14.713Z,19.8
2023-09-19T14:38:19.976Z,19.7
2023-09-19T14:40:22.019Z,19.7
2023-09-19T14:42:24.068Z,19.7
2023-09-19T14:44:26.322Z,19.6
2023-09-19T14:48:30.278Z,19.5
2023-09-19T14:50:32.350Z,19.6
2023-09-19T14:52:37.668Z,19.5
2023-09-19T14:57:44.303Z,19.5
2023-09-19T14:59:46.373Z,19.5
2023-09-19T15:01:48.561Z,19.5
2023-09-19T15:03:50.757Z,19.4
2023-09-19T15:05:55.808Z,19.3
2023-09-19T15:07:57.848Z,19.3
2023-09-19T15:09:59.886Z,19.3
2023-09-19T15:12:01.952Z,19.3
2023-09-19T15:14:04.041Z,19.2
2023-09-19T15:18:08.231Z,19.2
2023-09-19T15:22:15.457Z,19.2
2023-09-19T15:26:19.676Z,19.1
2023-09-19T15:28:21.689Z,19
2023-09-19T15:30:23.778Z,19.1
2023-09-19T15:32:25.833Z,19
2023-09-19T15:34:31.102Z,18.9
2023-09-19T15:36:33.140Z,19
2023-09-19T15:38:35.215Z,18.9
2023-09-19T15:40:37.312Z,18.8
2023-09-19T15:42:39.356Z,18.9
2023-09-19T15:46:43.587Z,18.9
2023-09-19T15:48:48.764Z,18.9
2023-09-19T15:50:50.830Z,18.9
2023-09-19T15:52:52.913Z,18.9
2023-09-19T15:53:55.481Z,18.8
2023-09-19T15:55:57.614Z,18.8
2023-09-19T15:57:59.626Z,18.8
2023-09-19T16:02:07.025Z,18.7
2023-09-19T16:04:08.989Z,18.7
2023-09-19T16:06:11.162Z,18.6
2023-09-19T16:08:13.166Z,18.5
2023-09-19T16:10:15.214Z,18.1
2023-09-19T16:12:17.345Z,17.5
2023-09-19T16:14:19.379Z,17.5
2023-09-19T16:16:24.911Z,17.6
2023-09-19T16:18:26.678Z,17.7
2023-09-19T16:20:28.736Z,17.6
2023-09-19T16:24:32.869Z,17.8
2023-09-19T16:26:34.989Z,17.8
2023-09-19T16:30:42.258Z,17.8
2023-09-19T16:32:44.372Z,17.9
2023-09-19T16:34:46.448Z,17.9
2023-09-19T16:38:50.587Z,17.8
2023-09-19T16:40:52.661Z,17.9
2023-09-19T16:52:08.802Z,17.9
2023-09-19T16:54:10.878Z,17.8
2023-09-19T16:56:12.970Z,17.8
2023-09-19T16:58:18.191Z,17.9
2023-09-19T17:00:20.235Z,17.9
2023-09-19T17:02:22.390Z,18
2023-09-19T17:06:26.458Z,18.1
2023-09-19T17:08:28.543Z,18.1
2023-09-19T17:10:30.629Z,18.1
2023-09-19T17:12:35.829Z,18.1
2023-09-19T17:47:43.998Z,18.3
2023-09-19T17:49:46.235Z,18.2
2023-09-19T17:51:48.148Z,18.2
2023-09-19T17:53:53.407Z,18.1
2023-09-19T17:55:55.484Z,18.1
2023-09-19T17:57:58.125Z,18.1
2023-09-19T18:02:01.780Z,18.1
2023-09-19T18:04:04.076Z,18.1
2023-09-19T18:06:05.854Z,18
2023-09-19T18:18:21.553Z,18
2023-09-19T18:22:28.767Z,17.7
2023-09-19T18:24:30.833Z,17.6
2023-09-19T18:26:32.928Z,17.7
2023-09-19T18:28:34.982Z,17.6
2023-09-19T18:30:37.069Z,17.6
2023-09-19T18:32:39.208Z,17.5
2023-09-19T18:34:41.267Z,17.5
2023-09-19T18:36:46.483Z,17.3
2023-09-19T18:38:48.567Z,17.2
2023-09-19T18:40:50.685Z,17.3
2023-09-19T18:41:53.267Z,17.1
2023-09-19T18:43:55.349Z,17.1
2023-09-19T18:45:57.446Z,17.1
2023-09-19T18:47:59.478Z,17
2023-09-19T18:50:04.778Z,16.7
2023-09-19T18:52:06.778Z,16.7
2023-09-19T18:54:13.190Z,16.7
2023-09-19T18:56:11.040Z,16.6
2023-09-19T18:58:13.022Z,16.6
2023-09-19T19:00:15.084Z,16.6
2023-09-19T19:04:22.397Z,16.6
2023-09-19T19:14:32.789Z,16.5
2023-09-19T19:16:34.889Z,16.5
2023-09-19T19:18:40.383Z,16.5
2023-09-19T19:20:42.142Z,16.4
2023-09-19T19:24:46.289Z,16.4
2023-09-19T19:26:48.379Z,16.5
2023-09-19T19:28:50.491Z,16.5
2023-09-19T19:30:52.562Z,16.6
2023-09-19T19:32:57.814Z,16.5
2023-09-19T19:37:01.890Z,16.5
2023-09-19T19:38:04.537Z,16.5
2023-09-19T19:40:06.597Z,16.6
2023-09-19T19:42:08.678Z,16.6
2023-09-19T19:44:10.852Z,16.5
2023-09-19T19:46:16.029Z,16.7
2023-09-19T19:48:18.084Z,16.6
2023-09-19T19:50:21.761Z,16.7
2023-09-19T19:52:23.734Z,16.8
2023-09-19T19:54:25.781Z,16.8
2023-09-19T19:56:27.913Z,16.8
2023-09-19T19:58:29.969Z,16.7
2023-09-19T20:00:35.160Z,16.9
2023-09-19T20:02:37.394Z,16.8
2023-09-19T20:04:39.321Z,16.8
2023-09-19T20:06:41.389Z,16.8
2023-09-19T20:08:43.661Z,17
2023-09-19T20:10:45.696Z,17
2023-09-19T20:12:47.624Z,17
2023-09-19T20:14:52.871Z,17
2023-09-19T20:16:55.019Z,17
2023-09-19T20:18:56.997Z,17
2023-09-19T20:20:59.071Z,16.9
2023-09-19T20:23:01.227Z,17
2023-09-19T20:25:03.232Z,17.1
2023-09-19T20:27:05.309Z,17.1
2023-09-19T20:29:10.587Z,17.1
2023-09-19T20:31:12.845Z,17.1
2023-09-19T20:33:14.754Z,17.1
2023-09-19T20:34:17.307Z,17.2
2023-09-19T20:36:19.379Z,17.2
2023-09-19T20:58:48.653Z,17.4
2023-09-19T21:00:51.065Z,17.3
2023-09-19T21:02:52.741Z,17.3
2023-09-19T21:11:04.160Z,17.2
2023-09-19T21:13:06.231Z,17.1
2023-09-19T21:15:08.296Z,17
2023-09-19T21:17:10.396Z,16.9
2023-09-19T21:19:12.438Z,17
2023-09-19T21:21:14.526Z,16.9
2023-09-19T21:23:16.607Z,16.8
2023-09-19T21:25:21.833Z,16.9
2023-09-19T21:27:23.830Z,16.9
2023-09-19T21:29:25.923Z,17
2023-09-19T21:31:54.564Z,17.1
2023-09-19T21:33:56.601Z,17.2
2023-09-19T21:35:58.717Z,17.1
2023-09-19T21:38:04.016Z,17.1
2023-09-19T21:40:05.996Z,17.1
2023-09-19T21:44:10.204Z,17.2
2023-09-19T22:06:39.252Z,17.2
2023-09-19T22:08:41.629Z,17.2
2023-09-19T22:26:03.755Z,17
2023-09-19T22:28:05.810Z,17
2023-09-19T22:30:07.880Z,17.1
2023-09-19T22:32:09.975Z,17
2023-09-19T22:34:15.176Z,17.1
2023-09-19T22:58:43.549Z,17.3
2023-09-19T23:00:45.339Z,17.4
2023-09-19T23:08:56.773Z,17.6
2023-09-19T23:10:58.893Z,17.5
2023-09-19T23:13:00.915Z,17.6
2023-09-19T23:15:03.011Z,17.6
2023-09-19T23:17:08.248Z,17.6
2023-09-19T23:19:10.395Z,17.6
2023-09-19T23:21:12.397Z,17.6
2023-09-19T23:22:15.657Z,17.6
2023-09-19T23:24:17.696Z,17.7
2023-09-19T23:28:21.868Z,17.7
2023-09-19T23:36:33.312Z,17.7
2023-09-19T23:40:37.496Z,17.8
2023-09-19T23:42:39.533Z,17.8
2023-09-19T23:46:47.091Z,17.8
2023-09-19T23:48:48.947Z,17.7
2023-09-19T23:50:51.008Z,17.8
2023-09-19T23:52:53.123Z,17.8
